Desoto — WDE3761 — position and weather

sailwx.info

Track history (hours):
 
Tides and Currents Weather Stations Pressure Air Temp Water Temp Dewpoint Dewpoint Depression Visibility Wind Speed Wind Dir Waves Ship Positions

Desoto

Owner: Tampa Pilots LLC, tampa, FL. More information available from US FCC via Universal Licensing System and Coast Guard Vessel Documentation Center.

Last reported at 2014-Nov-23 19:31 UTC. Time now 2014-Nov-23 20:09 UTC.
Position N 27°35' W 082°46'.

Length 18 m.

Type: Pilot. MMSI: 367343870.

Date/timePositionNaut miles runAvg speedWind from/ knotsBaromVisibWave heightAir tempDewpointWater temp
2014-Nov-23 19:31N 27°35' W 082°46'0 0.0
2014-Nov-23 18:25N 27°35' W 082°46'0 0.0
2014-Nov-23 17:28N 27°35' W 082°46'1 1.6
2014-Nov-23 16:33N 27°37' W 082°46'1 0.7
2014-Nov-23 14:25N 27°35' W 082°46'0 0.0
2014-Nov-23 13:31N 27°35' W 082°46'0 0.0
2014-Nov-23 12:31N 27°35' W 082°46'0 0.0
2014-Nov-23 11:31N 27°35' W 082°46'0 0.0
2014-Nov-23 10:31N 27°35' W 082°46'1 1.3
2014-Nov-23 09:34N 27°36' W 082°45'9 9.4
2014-Nov-23 08:33N 27°36' W 082°56'9 8.7
2014-Nov-23 07:34N 27°37' W 082°46'2 1.8
2014-Nov-23 06:32N 27°35' W 082°46'0 0.0
2014-Nov-23 05:33N 27°35' W 082°46'0 0.0
2014-Nov-23 04:11N 27°35' W 082°46'0 0.0
2014-Nov-23 03:33N 27°35' W 082°46'0 0.0
2014-Nov-23 02:32N 27°35' W 082°46'0 0.0
2014-Nov-23 01:17N 27°35' W 082°46'0 0.0
2014-Nov-23 00:32N 27°35' W 082°46'2 1.7
2014-Nov-22 23:31N 27°36' W 082°44'2 1.7
2014-Nov-22 22:31N 27°35' W 082°46'0 0.0
2014-Nov-22 21:25N 27°35' W 082°46'0 0.0
2014-Nov-22 20:31N 27°35' W 082°46'0 0.0
2014-Nov-22 19:28N 27°35' W 082°46'0 0.0
2014-Nov-22 18:13N 27°35' W 082°46'0 0.0
2014-Nov-22 16:25N 27°35' W 082°46'0 0.0
2014-Nov-22 15:22N 27°35' W 082°46'0 0.0
2014-Nov-22 14:10N 27°35' W 082°46'0 0.0
2014-Nov-22 12:22N 27°35' W 082°46'2 2.9
2014-Nov-22 11:30N 27°37' W 082°44'2 2.5
2014-Nov-22 10:31N 27°35' W 082°46'6 6.0
2014-Nov-22 09:33N 27°36' W 082°52'7 7.3
2014-Nov-22 08:33N 27°37' W 082°44'2 1.6
2014-Nov-22 07:05N 27°35' W 082°46'0 0.0
2014-Nov-22 05:17N 27°35' W 082°46'0 0.0
2014-Nov-22 04:29N 27°35' W 082°46'0 0.0
2014-Nov-22 03:32N 27°35' W 082°46'0 0.0
2014-Nov-22 02:32N 27°35' W 082°46'0 0.0
2014-Nov-22 01:32N 27°35' W 082°46'0 0.0
2014-Nov-22 00:07N 27°35' W 082°46'1 1.8
2014-Nov-21 23:33N 27°36' W 082°45'3 3.0
2014-Nov-21 22:32N 27°37' W 082°48'3 2.7
2014-Nov-21 21:33N 27°36' W 082°45'1 0.8
2014-Nov-21 20:32N 27°35' W 082°46'0 0.0
2014-Nov-21 19:32N 27°35' W 082°46'0 0.0
2014-Nov-21 18:32N 27°35' W 082°46'0 0.0
2014-Nov-21 17:32N 27°35' W 082°46'0 0.0
2014-Nov-21 16:32N 27°35' W 082°46'0 0.0
2014-Nov-21 15:32N 27°35' W 082°46'0 0.0
2014-Nov-21 14:32N 27°35' W 082°46'0 0.0
2014-Nov-21 13:32N 27°35' W 082°46'0 0.0
2014-Nov-21 12:32N 27°35' W 082°46'0 0.0
2014-Nov-21 11:32N 27°35' W 082°46'0 0.0
2014-Nov-21 10:32N 27°35' W 082°46'0 0.0
2014-Nov-21 09:32N 27°35' W 082°46'0 0.0
2014-Nov-21 08:32N 27°35' W 082°46'0 0.0
2014-Nov-21 07:32N 27°35' W 082°46'0 0.0
2014-Nov-21 05:32N 27°35' W 082°46'0 0.0
2014-Nov-21 04:32N 27°35' W 082°46'0 0.0
2014-Nov-21 03:32N 27°35' W 082°46'0 0.0
2014-Nov-21 02:32N 27°35' W 082°46'0 0.0
2014-Nov-21 01:32N 27°35' W 082°46'0 0.0
2014-Nov-21 00:32N 27°35' W 082°46'0 0.0
2014-Nov-20 23:32N 27°35' W 082°46'0 0.0
2014-Nov-20 22:32N 27°35' W 082°46'0 0.0
2014-Nov-20 21:32N 27°35' W 082°46'0 0.0
2014-Nov-20 20:32N 27°35' W 082°46'0 0.0
2014-Nov-20 19:32N 27°35' W 082°46'0 0.0
2014-Nov-20 18:32N 27°35' W 082°46'0 0.0
2014-Nov-20 17:32N 27°35' W 082°46'2 1.6
2014-Nov-20 16:33N 27°36' W 082°44'0 0.4
2014-Nov-20 15:34N 27°36' W 082°45'2 1.5
2014-Nov-20 14:32N 27°35' W 082°46'0 0.0
2014-Nov-20 13:32N 27°35' W 082°46'0 0.0
2014-Nov-20 12:17N 27°35' W 082°46'0 0.0
2014-Nov-20 11:32N 27°35' W 082°46'0 0.0
2014-Nov-20 10:32N 27°35' W 082°46'0 0.0
2014-Nov-20 09:32N 27°35' W 082°46'0 0.0
2014-Nov-20 08:32N 27°35' W 082°46'0 0.0
2014-Nov-20 07:32N 27°35' W 082°46'0 0.0
2014-Nov-20 06:32N 27°35' W 082°46'0 0.0
2014-Nov-20 05:32N 27°35' W 082°46'0 0.0
2014-Nov-20 04:32N 27°35' W 082°46'0 0.0
2014-Nov-20 03:29N 27°35' W 082°46'0 0.0
2014-Nov-20 02:32N 27°35' W 082°46'0 0.0
2014-Nov-20 01:14N 27°35' W 082°46'0 0.0
2014-Nov-20 00:32N 27°35' W 082°46'0 0.0
2014-Nov-19 23:32N 27°35' W 082°46'0 0.0
2014-Nov-19 22:32N 27°35' W 082°46'0 0.0
2014-Nov-19 21:32N 27°35' W 082°46'2 2.3
2014-Nov-19 20:29N 27°37' W 082°44'2 2.5
2014-Nov-19 19:32N 27°35' W 082°46'0 0.0
2014-Nov-19 18:23N 27°35' W 082°46'0 0.0
2014-Nov-19 17:29N 27°35' W 082°46'0 0.0
2014-Nov-19 16:32N 27°35' W 082°46'0 0.0
2014-Nov-19 15:32N 27°35' W 082°46'0 0.0
2014-Nov-19 14:32N 27°35' W 082°46'0 0.0
2014-Nov-19 13:26N 27°35' W 082°46'0 0.0
2014-Nov-19 12:23N 27°35' W 082°46'0 0.0
2014-Nov-19 11:32N 27°35' W 082°46'0 0.0
2014-Nov-19 10:32N 27°35' W 082°46'0 0.0
2014-Nov-19 09:32N 27°35' W 082°46'0 0.0
2014-Nov-19 08:32N 27°35' W 082°46'0 0.0
2014-Nov-19 07:32N 27°35' W 082°46'0 0.0
2014-Nov-19 06:32N 27°35' W 082°46'0 0.0
2014-Nov-19 05:32N 27°35' W 082°46'0 0.0
2014-Nov-19 04:32N 27°35' W 082°46'0 0.0
2014-Nov-19 03:20N 27°35' W 082°46'0 0.0
2014-Nov-19 01:08N 27°35' W 082°46'0 0.0
2014-Nov-19 00:32N 27°35' W 082°46'0 0.0
2014-Nov-18 23:32N 27°35' W 082°46'0 0.0
2014-Nov-18 22:29N 27°35' W 082°46'0 0.0
2014-Nov-18 21:32N 27°35' W 082°46'0 0.2
2014-Nov-18 20:33N 27°35' W 082°45'0 0.2
2014-Nov-18 19:28N 27°35' W 082°46'0 0.0
2014-Nov-18 18:31N 27°35' W 082°46'0 0.0
2014-Nov-18 17:31N 27°35' W 082°46'0 0.0
2014-Nov-18 16:22N 27°35' W 082°46'0 0.0
2014-Nov-18 15:22N 27°35' W 082°46'0 0.0
2014-Nov-18 14:28N 27°35' W 082°46'0 0.0
2014-Nov-18 13:31N 27°35' W 082°46'1 1.2
2014-Nov-18 12:33N 27°36' W 082°44'1 1.4
2014-Nov-18 11:33N 27°37' W 082°44'1 1.3
2014-Nov-18 10:33N 27°36' W 082°45'1 1.2
2014-Nov-18 09:31N 27°35' W 082°46'0 0.0
2014-Nov-18 08:33N 27°35' W 082°46'0 0.0
2014-Nov-18 07:33N 27°35' W 082°46'0 0.0
2014-Nov-18 06:33N 27°35' W 082°46'0 0.0
2014-Nov-18 05:33N 27°35' W 082°46'0 0.0
2014-Nov-18 04:33N 27°35' W 082°46'0 0.0
2014-Nov-18 03:33N 27°35' W 082°46'0 0.0
2014-Nov-18 02:33N 27°35' W 082°46'0 0.0
2014-Nov-18 01:27N 27°35' W 082°46'0 0.0
2014-Nov-18 00:33N 27°35' W 082°46'2 2.2
2014-Nov-17 23:26N 27°37' W 082°44'2 2.8
2014-Nov-17 22:33N 27°35' W 082°46'0 0.0
2014-Nov-17 21:33N 27°35' W 082°46'0 0.0
2014-Nov-17 20:33N 27°35' W 082°46'0 0.0
2014-Nov-17 19:33N 27°35' W 082°46'0 0.0
2014-Nov-17 18:33N 27°35' W 082°46'2 1.8
2014-Nov-17 17:33N 27°36' W 082°44'2 1.7
2014-Nov-17 16:32N 27°35' W 082°46'0 0.0
2014-Nov-17 15:32N 27°35' W 082°46'0 0.0
2014-Nov-17 14:29N 27°35' W 082°46'0 0.0
2014-Nov-17 13:32N 27°35' W 082°46'0 0.0
2014-Nov-17 12:32N 27°35' W 082°46'0 0.0
2014-Nov-17 11:32N 27°35' W 082°46'0 0.0
2014-Nov-17 10:32N 27°35' W 082°46'0 0.0
2014-Nov-17 09:32N 27°35' W 082°46'0 0.0
2014-Nov-17 08:32N 27°35' W 082°46'0 0.0
2014-Nov-17 07:32N 27°35' W 082°46'0 0.0
2014-Nov-17 06:32N 27°35' W 082°46'0 0.0
2014-Nov-17 05:32N 27°35' W 082°46'0 0.0
2014-Nov-17 04:17N 27°35' W 082°46'0 0.0
2014-Nov-17 03:17N 27°35' W 082°46'0 0.0
2014-Nov-17 02:32N 27°35' W 082°46'0 0.0
2014-Nov-17 01:29N 27°35' W 082°46'0 0.0
2014-Nov-17 00:11N 27°35' W 082°46'0 0.0
2014-Nov-16 23:32N 27°35' W 082°46'0 0.0
2014-Nov-16 22:32N 27°35' W 082°46'0 0.0
2014-Nov-16 21:29N 27°35' W 082°46'0 0.0
2014-Nov-16 20:32N 27°35' W 082°46'0 0.0
2014-Nov-16 19:32N 27°35' W 082°46'0 0.0
2014-Nov-16 18:32N 27°35' W 082°46'0 0.0
2014-Nov-16 17:32N 27°35' W 082°46'0 0.0
2014-Nov-16 16:32N 27°35' W 082°46'0 0.0
2014-Nov-16 15:32N 27°35' W 082°46'0 0.0
2014-Nov-16 14:32N 27°35' W 082°46'0 0.0
2014-Nov-16 13:32N 27°35' W 082°46'0 0.0
2014-Nov-16 12:32N 27°35' W 082°46'0 0.0
2014-Nov-16 11:32N 27°35' W 082°46'0 0.0
2014-Nov-16 10:32N 27°35' W 082°46'0 0.0
2014-Nov-16 09:32N 27°35' W 082°46'0 0.0
2014-Nov-16 08:32N 27°35' W 082°46'0 0.0
2014-Nov-16 07:29N 27°35' W 082°46'0 0.0
2014-Nov-16 06:32N 27°35' W 082°46'0 0.0
2014-Nov-16 05:32N 27°35' W 082°46'0 0.0
2014-Nov-16 04:32N 27°35' W 082°46'0 0.0
2014-Nov-16 03:32N 27°35' W 082°46'0 0.0
2014-Nov-16 02:32N 27°35' W 082°46'0 0.0
2014-Nov-16 01:29N 27°35' W 082°46'0 0.0
2014-Nov-16 00:32N 27°35' W 082°46'0 0.0
2014-Nov-15 23:32N 27°35' W 082°46'0 0.0
2014-Nov-15 22:32N 27°35' W 082°46'0 0.0
2014-Nov-15 21:32N 27°35' W 082°46'0 0.0
2014-Nov-15 20:32N 27°35' W 082°46'0 0.0
2014-Nov-15 19:32N 27°35' W 082°46'0 0.0
2014-Nov-15 18:32N 27°35' W 082°46'0 0.0
2014-Nov-15 17:32N 27°35' W 082°46'0 0.0
2014-Nov-15 16:32N 27°35' W 082°46'0 0.0
2014-Nov-15 15:32N 27°35' W 082°46'0 0.0
2014-Nov-15 14:32N 27°35' W 082°46'0 0.0
2014-Nov-15 13:32N 27°35' W 082°46'0 0.0
2014-Nov-15 12:32N 27°35' W 082°46'0 0.0
2014-Nov-15 11:32N 27°35' W 082°46'0 0.0
2014-Nov-15 10:32N 27°35' W 082°46'0 0.0
2014-Nov-15 09:32N 27°35' W 082°46'0 0.0
2014-Nov-15 08:32N 27°35' W 082°46'0 0.0
2014-Nov-15 07:32N 27°35' W 082°46'0 0.0
2014-Nov-15 06:32N 27°35' W 082°46'0 0.0
2014-Nov-15 05:32N 27°35' W 082°46'0 0.0
2014-Nov-15 04:32N 27°35' W 082°46'0 0.0
2014-Nov-15 03:32N 27°35' W 082°46'0 0.0
2014-Nov-15 02:32N 27°35' W 082°46'0 0.0
2014-Nov-15 01:32N 27°35' W 082°46'0 0.0
2014-Nov-15 00:32N 27°35' W 082°46'0 0.0
2014-Nov-14 23:32N 27°35' W 082°46'0 0.0
2014-Nov-14 22:29N 27°35' W 082°46'0 0.0
2014-Nov-14 21:32N 27°35' W 082°46'0 0.0
2014-Nov-14 20:32N 27°35' W 082°46'0 0.0
2014-Nov-14 19:32N 27°35' W 082°46'0 0.0
2014-Nov-14 18:32N 27°35' W 082°46'0 0.0
2014-Nov-14 17:26N 27°35' W 082°46'0 0.0
2014-Nov-14 16:29N 27°35' W 082°46'0 0.0
2014-Nov-14 15:29N 27°35' W 082°46'0 0.0
2014-Nov-14 14:32N 27°35' W 082°46'0 0.0
2014-Nov-14 12:32N 27°35' W 082°46'0 0.0
2014-Nov-14 11:32N 27°35' W 082°46'0 0.0
2014-Nov-14 10:32N 27°35' W 082°46'0 0.0
2014-Nov-14 09:32N 27°35' W 082°46'0 0.0
2014-Nov-14 08:32N 27°35' W 082°46'0 0.0
2014-Nov-14 07:26N 27°35' W 082°46'0 0.0
2014-Nov-14 06:32N 27°35' W 082°46'0 0.0
2014-Nov-14 05:32N 27°35' W 082°46'0 0.0
2014-Nov-14 04:32N 27°35' W 082°46'0 0.0
2014-Nov-14 03:29N 27°35' W 082°46'0 0.0
2014-Nov-14 02:32N 27°35' W 082°46'0 0.0
2014-Nov-14 01:32N 27°35' W 082°46'0 0.0
2014-Nov-14 00:32N 27°35' W 082°46'0 0.0
2014-Nov-13 23:32N 27°35' W 082°46'0 0.0
2014-Nov-13 22:32N 27°35' W 082°46'0 0.0
2014-Nov-13 21:32N 27°35' W 082°46'0 0.0
2014-Nov-13 20:29N 27°35' W 082°46'0 0.0
2014-Nov-13 19:32N 27°35' W 082°46'  
Track history (hours):
 
Tides and Currents Weather Stations Pressure Air Temp Water Temp Dewpoint Dewpoint Depression Visibility Wind Speed Wind Dir Waves Ship Positions

Desoto

Owner: Tampa Pilots LLC, tampa, FL. More information available from US FCC via Universal Licensing System and Coast Guard Vessel Documentation Center.

Last reported at 2014-Nov-23 19:31 UTC. Time now 2014-Nov-23 20:09 UTC.
Position N 27°35' W 082°46'.

Length 18 m.

Type: Pilot. MMSI: 367343870.

Date/timePositionNaut miles runAvg speedWind from/ knotsBaromVisibWave heightAir tempDewpointWater temp
2014-Nov-23 19:31N 27°35' W 082°46'0 0.0
2014-Nov-23 18:25N 27°35' W 082°46'0 0.0
2014-Nov-23 17:28N 27°35' W 082°46'1 1.6
2014-Nov-23 16:33N 27°37' W 082°46'1 0.7
2014-Nov-23 14:25N 27°35' W 082°46'0 0.0
2014-Nov-23 13:31N 27°35' W 082°46'0 0.0
2014-Nov-23 12:31N 27°35' W 082°46'0 0.0
2014-Nov-23 11:31N 27°35' W 082°46'0 0.0
2014-Nov-23 10:31N 27°35' W 082°46'1 1.3
2014-Nov-23 09:34N 27°36' W 082°45'9 9.4
2014-Nov-23 08:33N 27°36' W 082°56'9 8.7
2014-Nov-23 07:34N 27°37' W 082°46'2 1.8
2014-Nov-23 06:32N 27°35' W 082°46'0 0.0
2014-Nov-23 05:33N 27°35' W 082°46'0 0.0
2014-Nov-23 04:11N 27°35' W 082°46'0 0.0
2014-Nov-23 03:33N 27°35' W 082°46'0 0.0
2014-Nov-23 02:32N 27°35' W 082°46'0 0.0
2014-Nov-23 01:17N 27°35' W 082°46'0 0.0
2014-Nov-23 00:32N 27°35' W 082°46'2 1.7
2014-Nov-22 23:31N 27°36' W 082°44'2 1.7
2014-Nov-22 22:31N 27°35' W 082°46'0 0.0
2014-Nov-22 21:25N 27°35' W 082°46'0 0.0
2014-Nov-22 20:31N 27°35' W 082°46'0 0.0
2014-Nov-22 19:28N 27°35' W 082°46'0 0.0
2014-Nov-22 18:13N 27°35' W 082°46'0 0.0
2014-Nov-22 16:25N 27°35' W 082°46'0 0.0
2014-Nov-22 15:22N 27°35' W 082°46'0 0.0
2014-Nov-22 14:10N 27°35' W 082°46'0 0.0
2014-Nov-22 12:22N 27°35' W 082°46'2 2.9
2014-Nov-22 11:30N 27°37' W 082°44'2 2.5
2014-Nov-22 10:31N 27°35' W 082°46'6 6.0
2014-Nov-22 09:33N 27°36' W 082°52'7 7.3
2014-Nov-22 08:33N 27°37' W 082°44'2 1.6
2014-Nov-22 07:05N 27°35' W 082°46'0 0.0
2014-Nov-22 05:17N 27°35' W 082°46'0 0.0
2014-Nov-22 04:29N 27°35' W 082°46'0 0.0
2014-Nov-22 03:32N 27°35' W 082°46'0 0.0
2014-Nov-22 02:32N 27°35' W 082°46'0 0.0
2014-Nov-22 01:32N 27°35' W 082°46'0 0.0
2014-Nov-22 00:07N 27°35' W 082°46'1 1.8
2014-Nov-21 23:33N 27°36' W 082°45'3 3.0
2014-Nov-21 22:32N 27°37' W 082°48'3 2.7
2014-Nov-21 21:33N 27°36' W 082°45'1 0.8
2014-Nov-21 20:32N 27°35' W 082°46'0 0.0
2014-Nov-21 19:32N 27°35' W 082°46'0 0.0
2014-Nov-21 18:32N 27°35' W 082°46'0 0.0
2014-Nov-21 17:32N 27°35' W 082°46'0 0.0
2014-Nov-21 16:32N 27°35' W 082°46'0 0.0
2014-Nov-21 15:32N 27°35' W 082°46'0 0.0
2014-Nov-21 14:32N 27°35' W 082°46'0 0.0
2014-Nov-21 13:32N 27°35' W 082°46'0 0.0
2014-Nov-21 12:32N 27°35' W 082°46'0 0.0
2014-Nov-21 11:32N 27°35' W 082°46'0 0.0
2014-Nov-21 10:32N 27°35' W 082°46'0 0.0
2014-Nov-21 09:32N 27°35' W 082°46'0 0.0
2014-Nov-21 08:32N 27°35' W 082°46'0 0.0
2014-Nov-21 07:32N 27°35' W 082°46'0 0.0
2014-Nov-21 05:32N 27°35' W 082°46'0 0.0
2014-Nov-21 04:32N 27°35' W 082°46'0 0.0
2014-Nov-21 03:32N 27°35' W 082°46'0 0.0
2014-Nov-21 02:32N 27°35' W 082°46'0 0.0
2014-Nov-21 01:32N 27°35' W 082°46'0 0.0
2014-Nov-21 00:32N 27°35' W 082°46'0 0.0
2014-Nov-20 23:32N 27°35' W 082°46'0 0.0
2014-Nov-20 22:32N 27°35' W 082°46'0 0.0
2014-Nov-20 21:32N 27°35' W 082°46'0 0.0
2014-Nov-20 20:32N 27°35' W 082°46'0 0.0
2014-Nov-20 19:32N 27°35' W 082°46'0 0.0
2014-Nov-20 18:32N 27°35' W 082°46'0 0.0
2014-Nov-20 17:32N 27°35' W 082°46'2 1.6
2014-Nov-20 16:33N 27°36' W 082°44'0 0.4
2014-Nov-20 15:34N 27°36' W 082°45'2 1.5
2014-Nov-20 14:32N 27°35' W 082°46'0 0.0
2014-Nov-20 13:32N 27°35' W 082°46'0 0.0
2014-Nov-20 12:17N 27°35' W 082°46'0 0.0
2014-Nov-20 11:32N 27°35' W 082°46'0 0.0
2014-Nov-20 10:32N 27°35' W 082°46'0 0.0
2014-Nov-20 09:32N 27°35' W 082°46'0 0.0
2014-Nov-20 08:32N 27°35' W 082°46'0 0.0
2014-Nov-20 07:32N 27°35' W 082°46'0 0.0
2014-Nov-20 06:32N 27°35' W 082°46'0 0.0
2014-Nov-20 05:32N 27°35' W 082°46'0 0.0
2014-Nov-20 04:32N 27°35' W 082°46'0 0.0
2014-Nov-20 03:29N 27°35' W 082°46'0 0.0
2014-Nov-20 02:32N 27°35' W 082°46'0 0.0
2014-Nov-20 01:14N 27°35' W 082°46'0 0.0
2014-Nov-20 00:32N 27°35' W 082°46'0 0.0
2014-Nov-19 23:32N 27°35' W 082°46'0 0.0
2014-Nov-19 22:32N 27°35' W 082°46'0 0.0
2014-Nov-19 21:32N 27°35' W 082°46'2 2.3
2014-Nov-19 20:29N 27°37' W 082°44'2 2.5
2014-Nov-19 19:32N 27°35' W 082°46'0 0.0
2014-Nov-19 18:23N 27°35' W 082°46'0 0.0
2014-Nov-19 17:29N 27°35' W 082°46'0 0.0
2014-Nov-19 16:32N 27°35' W 082°46'0 0.0
2014-Nov-19 15:32N 27°35' W 082°46'0 0.0
2014-Nov-19 14:32N 27°35' W 082°46'0 0.0
2014-Nov-19 13:26N 27°35' W 082°46'0 0.0
2014-Nov-19 12:23N 27°35' W 082°46'0 0.0
2014-Nov-19 11:32N 27°35' W 082°46'0 0.0
2014-Nov-19 10:32N 27°35' W 082°46'0 0.0
2014-Nov-19 09:32N 27°35' W 082°46'0 0.0
2014-Nov-19 08:32N 27°35' W 082°46'0 0.0
2014-Nov-19 07:32N 27°35' W 082°46'0 0.0
2014-Nov-19 06:32N 27°35' W 082°46'0 0.0
2014-Nov-19 05:32N 27°35' W 082°46'0 0.0
2014-Nov-19 04:32N 27°35' W 082°46'0 0.0
2014-Nov-19 03:20N 27°35' W 082°46'0 0.0
2014-Nov-19 01:08N 27°35' W 082°46'0 0.0
2014-Nov-19 00:32N 27°35' W 082°46'0 0.0
2014-Nov-18 23:32N 27°35' W 082°46'0 0.0
2014-Nov-18 22:29N 27°35' W 082°46'0 0.0
2014-Nov-18 21:32N 27°35' W 082°46'0 0.2
2014-Nov-18 20:33N 27°35' W 082°45'0 0.2
2014-Nov-18 19:28N 27°35' W 082°46'0 0.0
2014-Nov-18 18:31N 27°35' W 082°46'0 0.0
2014-Nov-18 17:31N 27°35' W 082°46'0 0.0
2014-Nov-18 16:22N 27°35' W 082°46'0 0.0
2014-Nov-18 15:22N 27°35' W 082°46'0 0.0
2014-Nov-18 14:28N 27°35' W 082°46'0 0.0
2014-Nov-18 13:31N 27°35' W 082°46'1 1.2
2014-Nov-18 12:33N 27°36' W 082°44'1 1.4
2014-Nov-18 11:33N 27°37' W 082°44'1 1.3
2014-Nov-18 10:33N 27°36' W 082°45'1 1.2
2014-Nov-18 09:31N 27°35' W 082°46'0 0.0
2014-Nov-18 08:33N 27°35' W 082°46'0 0.0
2014-Nov-18 07:33N 27°35' W 082°46'0 0.0
2014-Nov-18 06:33N 27°35' W 082°46'0 0.0
2014-Nov-18 05:33N 27°35' W 082°46'0 0.0
2014-Nov-18 04:33N 27°35' W 082°46'0 0.0
2014-Nov-18 03:33N 27°35' W 082°46'0 0.0
2014-Nov-18 02:33N 27°35' W 082°46'0 0.0
2014-Nov-18 01:27N 27°35' W 082°46'0 0.0
2014-Nov-18 00:33N 27°35' W 082°46'2 2.2
2014-Nov-17 23:26N 27°37' W 082°44'2 2.8
2014-Nov-17 22:33N 27°35' W 082°46'0 0.0
2014-Nov-17 21:33N 27°35' W 082°46'0 0.0
2014-Nov-17 20:33N 27°35' W 082°46'0 0.0
2014-Nov-17 19:33N 27°35' W 082°46'0 0.0
2014-Nov-17 18:33N 27°35' W 082°46'2 1.8
2014-Nov-17 17:33N 27°36' W 082°44'2 1.7
2014-Nov-17 16:32N 27°35' W 082°46'0 0.0
2014-Nov-17 15:32N 27°35' W 082°46'0 0.0
2014-Nov-17 14:29N 27°35' W 082°46'0 0.0
2014-Nov-17 13:32N 27°35' W 082°46'0 0.0
2014-Nov-17 12:32N 27°35' W 082°46'0 0.0
2014-Nov-17 11:32N 27°35' W 082°46'0 0.0
2014-Nov-17 10:32N 27°35' W 082°46'0 0.0
2014-Nov-17 09:32N 27°35' W 082°46'0 0.0
2014-Nov-17 08:32N 27°35' W 082°46'0 0.0
2014-Nov-17 07:32N 27°35' W 082°46'0 0.0
2014-Nov-17 06:32N 27°35' W 082°46'0 0.0
2014-Nov-17 05:32N 27°35' W 082°46'0 0.0
2014-Nov-17 04:17N 27°35' W 082°46'0 0.0
2014-Nov-17 03:17N 27°35' W 082°46'0 0.0
2014-Nov-17 02:32N 27°35' W 082°46'0 0.0
2014-Nov-17 01:29N 27°35' W 082°46'0 0.0
2014-Nov-17 00:11N 27°35' W 082°46'0 0.0
2014-Nov-16 23:32N 27°35' W 082°46'0 0.0
2014-Nov-16 22:32N 27°35' W 082°46'0 0.0
2014-Nov-16 21:29N 27°35' W 082°46'0 0.0
2014-Nov-16 20:32N 27°35' W 082°46'0 0.0
2014-Nov-16 19:32N 27°35' W 082°46'0 0.0
2014-Nov-16 18:32N 27°35' W 082°46'0 0.0
2014-Nov-16 17:32N 27°35' W 082°46'0 0.0
2014-Nov-16 16:32N 27°35' W 082°46'0 0.0
2014-Nov-16 15:32N 27°35' W 082°46'0 0.0
2014-Nov-16 14:32N 27°35' W 082°46'0 0.0
2014-Nov-16 13:32N 27°35' W 082°46'0 0.0
2014-Nov-16 12:32N 27°35' W 082°46'0 0.0
2014-Nov-16 11:32N 27°35' W 082°46'0 0.0
2014-Nov-16 10:32N 27°35' W 082°46'0 0.0
2014-Nov-16 09:32N 27°35' W 082°46'0 0.0
2014-Nov-16 08:32N 27°35' W 082°46'0 0.0
2014-Nov-16 07:29N 27°35' W 082°46'0 0.0
2014-Nov-16 06:32N 27°35' W 082°46'0 0.0
2014-Nov-16 05:32N 27°35' W 082°46'0 0.0
2014-Nov-16 04:32N 27°35' W 082°46'0 0.0
2014-Nov-16 03:32N 27°35' W 082°46'0 0.0
2014-Nov-16 02:32N 27°35' W 082°46'0 0.0
2014-Nov-16 01:29N 27°35' W 082°46'0 0.0
2014-Nov-16 00:32N 27°35' W 082°46'0 0.0
2014-Nov-15 23:32N 27°35' W 082°46'0 0.0
2014-Nov-15 22:32N 27°35' W 082°46'0 0.0
2014-Nov-15 21:32N 27°35' W 082°46'0 0.0
2014-Nov-15 20:32N 27°35' W 082°46'0 0.0
2014-Nov-15 19:32N 27°35' W 082°46'0 0.0
2014-Nov-15 18:32N 27°35' W 082°46'0 0.0
2014-Nov-15 17:32N 27°35' W 082°46'0 0.0
2014-Nov-15 16:32N 27°35' W 082°46'0 0.0
2014-Nov-15 15:32N 27°35' W 082°46'0 0.0
2014-Nov-15 14:32N 27°35' W 082°46'0 0.0
2014-Nov-15 13:32N 27°35' W 082°46'0 0.0
2014-Nov-15 12:32N 27°35' W 082°46'0 0.0
2014-Nov-15 11:32N 27°35' W 082°46'0 0.0
2014-Nov-15 10:32N 27°35' W 082°46'0 0.0
2014-Nov-15 09:32N 27°35' W 082°46'0 0.0
2014-Nov-15 08:32N 27°35' W 082°46'0 0.0
2014-Nov-15 07:32N 27°35' W 082°46'0 0.0
2014-Nov-15 06:32N 27°35' W 082°46'0 0.0
2014-Nov-15 05:32N 27°35' W 082°46'0 0.0
2014-Nov-15 04:32N 27°35' W 082°46'0 0.0
2014-Nov-15 03:32N 27°35' W 082°46'0 0.0
2014-Nov-15 02:32N 27°35' W 082°46'0 0.0
2014-Nov-15 01:32N 27°35' W 082°46'0 0.0
2014-Nov-15 00:32N 27°35' W 082°46'0 0.0
2014-Nov-14 23:32N 27°35' W 082°46'0 0.0
2014-Nov-14 22:29N 27°35' W 082°46'0 0.0
2014-Nov-14 21:32N 27°35' W 082°46'0 0.0
2014-Nov-14 20:32N 27°35' W 082°46'0 0.0
2014-Nov-14 19:32N 27°35' W 082°46'0 0.0
2014-Nov-14 18:32N 27°35' W 082°46'0 0.0
2014-Nov-14 17:26N 27°35' W 082°46'0 0.0
2014-Nov-14 16:29N 27°35' W 082°46'0 0.0
2014-Nov-14 15:29N 27°35' W 082°46'0 0.0
2014-Nov-14 14:32N 27°35' W 082°46'0 0.0
2014-Nov-14 12:32N 27°35' W 082°46'0 0.0
2014-Nov-14 11:32N 27°35' W 082°46'0 0.0
2014-Nov-14 10:32N 27°35' W 082°46'0 0.0
2014-Nov-14 09:32N 27°35' W 082°46'0 0.0
2014-Nov-14 08:32N 27°35' W 082°46'0 0.0
2014-Nov-14 07:26N 27°35' W 082°46'0 0.0
2014-Nov-14 06:32N 27°35' W 082°46'0 0.0
2014-Nov-14 05:32N 27°35' W 082°46'0 0.0
2014-Nov-14 04:32N 27°35' W 082°46'0 0.0
2014-Nov-14 03:29N 27°35' W 082°46'0 0.0
2014-Nov-14 02:32N 27°35' W 082°46'0 0.0
2014-Nov-14 01:32N 27°35' W 082°46'0 0.0
2014-Nov-14 00:32N 27°35' W 082°46'0 0.0
2014-Nov-13 23:32N 27°35' W 082°46'0 0.0
2014-Nov-13 22:32N 27°35' W 082°46'0 0.0
2014-Nov-13 21:32N 27°35' W 082°46'0 0.0
2014-Nov-13 20:29N 27°35' W 082°46'0 0.0
2014-Nov-13 19:32N 27°35' W 082°46'  

Dump ship's entire track history